sensor_id;sensor_type;location;lat;lon;timestamp;P1;durP1;ratioP1;P2;durP2;ratioP2
1603;SDS011;795;49.296;11.348;2022-08-30T00:02:19;13.10;;;8.17;;
1603;SDS011;795;49.296;11.348;2022-08-30T00:04:46;9.57;;;8.07;;
1603;SDS011;795;49.296;11.348;2022-08-30T00:07:13;9.30;;;8.33;;
1603;SDS011;795;49.296;11.348;2022-08-30T00:09:41;9.80;;;7.80;;
1603;SDS011;795;49.296;11.348;2022-08-30T00:12:08;13.30;;;8.57;;
1603;SDS011;795;49.296;11.348;2022-08-30T00:14:35;8.90;;;7.90;;
1603;SDS011;795;49.296;11.348;2022-08-30T00:17:03;9.40;;;8.03;;
1603;SDS011;795;49.296;11.348;2022-08-30T00:19:30;8.20;;;7.50;;
1603;SDS011;795;49.296;11.348;2022-08-30T00:21:57;8.27;;;7.57;;
1603;SDS011;795;49.296;11.348;2022-08-30T00:24:24;9.40;;;8.20;;
1603;SDS011;795;49.296;11.348;2022-08-30T00:26:51;9.20;;;8.30;;
1603;SDS011;795;49.296;11.348;2022-08-30T00:29:18;8.53;;;7.80;;
1603;SDS011;795;49.296;11.348;2022-08-30T00:31:45;8.57;;;7.77;;
1603;SDS011;795;49.296;11.348;2022-08-30T00:34:13;10.23;;;8.07;;
1603;SDS011;795;49.296;11.348;2022-08-30T00:36:42;8.17;;;7.30;;
1603;SDS011;795;49.296;11.348;2022-08-30T00:39:10;7.87;;;7.17;;
1603;SDS011;795;49.296;11.348;2022-08-30T00:41:38;8.03;;;7.33;;
1603;SDS011;795;49.296;11.348;2022-08-30T00:44:06;8.53;;;7.73;;
1603;SDS011;795;49.296;11.348;2022-08-30T00:46:33;8.90;;;7.90;;
1603;SDS011;795;49.296;11.348;2022-08-30T00:49:01;11.73;;;8.20;;
1603;SDS011;795;49.296;11.348;2022-08-30T00:51:35;8.07;;;7.37;;
1603;SDS011;795;49.296;11.348;2022-08-30T00:54:04;8.10;;;7.30;;
1603;SDS011;795;49.296;11.348;2022-08-30T00:56:32;8.20;;;7.50;;
1603;SDS011;795;49.296;11.348;2022-08-30T00:59:02;8.20;;;7.40;;
1603;SDS011;795;49.296;11.348;2022-08-30T01:01:32;11.70;;;8.17;;
1603;SDS011;795;49.296;11.348;2022-08-30T01:04:03;9.87;;;7.50;;
1603;SDS011;795;49.296;11.348;2022-08-30T01:06:34;8.20;;;7.40;;
1603;SDS011;795;49.296;11.348;2022-08-30T01:09:04;8.00;;;7.20;;
1603;SDS011;795;49.296;11.348;2022-08-30T01:11:34;8.00;;;7.10;;
1603;SDS011;795;49.296;11.348;2022-08-30T01:14:07;8.13;;;7.33;;
1603;SDS011;795;49.296;11.348;2022-08-30T01:16:41;9.93;;;7.70;;
1603;SDS011;795;49.296;11.348;2022-08-30T01:19:20;7.70;;;7.00;;
1603;SDS011;795;49.296;11.348;2022-08-30T01:25:18;9.37;;;6.90;;
1603;SDS011;795;49.296;11.348;2022-08-30T01:27:56;7.90;;;6.70;;
1603;SDS011;795;49.296;11.348;2022-08-30T01:30:36;18.70;;;7.53;;
1603;SDS011;795;49.296;11.348;2022-08-30T01:33:05;7.60;;;6.87;;
1603;SDS011;795;49.296;11.348;2022-08-30T01:35:58;9.77;;;6.30;;
1603;SDS011;795;49.296;11.348;2022-08-30T01:38:31;8.93;;;6.83;;
1603;SDS011;795;49.296;11.348;2022-08-30T01:41:25;8.57;;;7.77;;
1603;SDS011;795;49.296;11.348;2022-08-30T01:43:59;10.50;;;7.70;;
1603;SDS011;795;49.296;11.348;2022-08-30T01:46:39;8.97;;;7.53;;
1603;SDS011;795;49.296;11.348;2022-08-30T01:49:13;9.23;;;6.90;;
1603;SDS011;795;49.296;11.348;2022-08-30T01:51:53;7.73;;;7.00;;
1603;SDS011;795;49.296;11.348;2022-08-30T01:54:26;9.87;;;7.57;;
1603;SDS011;795;49.296;11.348;2022-08-30T01:57:03;11.70;;;7.27;;
1603;SDS011;795;49.296;11.348;2022-08-30T01:59:38;8.37;;;7.67;;
1603;SDS011;795;49.296;11.348;2022-08-30T02:02:13;11.00;;;8.17;;
1603;SDS011;795;49.296;11.348;2022-08-30T02:04:48;8.60;;;7.40;;
1603;SDS011;795;49.296;11.348;2022-08-30T02:07:16;7.77;;;7.07;;
1603;SDS011;795;49.296;11.348;2022-08-30T02:09:44;8.30;;;7.30;;
1603;SDS011;795;49.296;11.348;2022-08-30T02:12:11;9.50;;;7.37;;
1603;SDS011;795;49.296;11.348;2022-08-30T02:14:39;9.63;;;7.80;;
1603;SDS011;795;49.296;11.348;2022-08-30T02:17:07;8.60;;;7.80;;
1603;SDS011;795;49.296;11.348;2022-08-30T02:19:39;12.27;;;8.20;;
1603;SDS011;795;49.296;11.348;2022-08-30T02:22:08;8.50;;;7.60;;
1603;SDS011;795;49.296;11.348;2022-08-30T02:24:36;8.53;;;7.73;;
1603;SDS011;795;49.296;11.348;2022-08-30T02:27:04;8.40;;;7.60;;
1603;SDS011;795;49.296;11.348;2022-08-30T02:29:31;8.63;;;7.93;;
1603;SDS011;795;49.296;11.348;2022-08-30T02:31:58;7.73;;;6.67;;
1603;SDS011;795;49.296;11.348;2022-08-30T02:34:26;9.10;;;7.47;;
1603;SDS011;795;49.296;11.348;2022-08-30T02:36:53;8.30;;;7.40;;
1603;SDS011;795;49.296;11.348;2022-08-30T02:39:20;8.63;;;7.77;;
1603;SDS011;795;49.296;11.348;2022-08-30T02:41:47;8.93;;;7.90;;
1603;SDS011;795;49.296;11.348;2022-08-30T02:44:14;8.50;;;7.27;;
1603;SDS011;795;49.296;11.348;2022-08-30T02:46:41;8.57;;;7.63;;
1603;SDS011;795;49.296;11.348;2022-08-30T02:49:08;8.30;;;7.60;;
1603;SDS011;795;49.296;11.348;2022-08-30T02:51:55;10.10;;;7.50;;
1603;SDS011;795;49.296;11.348;2022-08-30T02:54:22;10.40;;;7.10;;
1603;SDS011;795;49.296;11.348;2022-08-30T02:56:50;10.20;;;7.40;;
1603;SDS011;795;49.296;11.348;2022-08-30T02:59:17;9.80;;;7.80;;
1603;SDS011;795;49.296;11.348;2022-08-30T03:01:44;9.70;;;7.87;;
1603;SDS011;795;49.296;11.348;2022-08-30T03:04:11;10.40;;;7.80;;
1603;SDS011;795;49.296;11.348;2022-08-30T03:06:38;8.30;;;7.33;;
1603;SDS011;795;49.296;11.348;2022-08-30T03:09:05;12.77;;;7.43;;
1603;SDS011;795;49.296;11.348;2022-08-30T03:11:32;8.23;;;7.30;;
1603;SDS011;795;49.296;11.348;2022-08-30T03:13:59;8.07;;;7.30;;
1603;SDS011;795;49.296;11.348;2022-08-30T03:16:26;10.60;;;8.43;;
1603;SDS011;795;49.296;11.348;2022-08-30T03:18:53;8.17;;;7.47;;
1603;SDS011;795;49.296;11.348;2022-08-30T03:21:20;8.50;;;7.70;;
1603;SDS011;795;49.296;11.348;2022-08-30T03:23:47;9.20;;;8.23;;
1603;SDS011;795;49.296;11.348;2022-08-30T03:26:14;8.43;;;7.63;;
1603;SDS011;795;49.296;11.348;2022-08-30T03:28:41;9.00;;;8.10;;
1603;SDS011;795;49.296;11.348;2022-08-30T03:31:09;10.40;;;9.30;;
1603;SDS011;795;49.296;11.348;2022-08-30T03:33:37;10.53;;;8.90;;
1603;SDS011;795;49.296;11.348;2022-08-30T03:36:06;16.00;;;8.57;;
1603;SDS011;795;49.296;11.348;2022-08-30T03:38:35;9.40;;;8.60;;
1603;SDS011;795;49.296;11.348;2022-08-30T03:41:03;8.90;;;8.20;;
1603;SDS011;795;49.296;11.348;2022-08-30T03:43:32;13.00;;;8.90;;
1603;SDS011;795;49.296;11.348;2022-08-30T03:46:00;9.60;;;7.93;;
1603;SDS011;795;49.296;11.348;2022-08-30T03:48:28;10.67;;;9.67;;
1603;SDS011;795;49.296;11.348;2022-08-30T03:50:56;9.60;;;8.70;;
1603;SDS011;795;49.296;11.348;2022-08-30T03:53:23;9.70;;;7.83;;
1603;SDS011;795;49.296;11.348;2022-08-30T03:55:52;14.53;;;8.53;;
1603;SDS011;795;49.296;11.348;2022-08-30T03:58:20;11.57;;;8.37;;
1603;SDS011;795;49.296;11.348;2022-08-30T04:00:48;11.07;;;8.80;;
1603;SDS011;795;49.296;11.348;2022-08-30T04:03:15;16.20;;;9.80;;
1603;SDS011;795;49.296;11.348;2022-08-30T04:05:44;14.10;;;9.07;;
1603;SDS011;795;49.296;11.348;2022-08-30T04:08:11;13.37;;;9.27;;
1603;SDS011;795;49.296;11.348;2022-08-30T04:10:37;10.40;;;9.50;;
1603;SDS011;795;49.296;11.348;2022-08-30T04:13:04;9.67;;;8.77;;
1603;SDS011;795;49.296;11.348;2022-08-30T04:15:31;10.07;;;9.20;;
1603;SDS011;795;49.296;11.348;2022-08-30T04:17:58;9.27;;;8.37;;
1603;SDS011;795;49.296;11.348;2022-08-30T04:20:25;9.30;;;8.50;;
1603;SDS011;795;49.296;11.348;2022-08-30T04:22:52;10.57;;;8.93;;
1603;SDS011;795;49.296;11.348;2022-08-30T04:25:19;12.33;;;8.30;;
1603;SDS011;795;49.296;11.348;2022-08-30T04:27:46;9.90;;;8.80;;
1603;SDS011;795;49.296;11.348;2022-08-30T04:30:14;9.47;;;8.57;;
1603;SDS011;795;49.296;11.348;2022-08-30T04:32:43;9.60;;;7.90;;
1603;SDS011;795;49.296;11.348;2022-08-30T04:35:11;10.63;;;9.53;;
1603;SDS011;795;49.296;11.348;2022-08-30T04:37:38;10.43;;;9.30;;
1603;SDS011;795;49.296;11.348;2022-08-30T04:40:06;9.20;;;8.27;;
1603;SDS011;795;49.296;11.348;2022-08-30T04:42:35;12.07;;;9.20;;
1603;SDS011;795;49.296;11.348;2022-08-30T04:45:04;10.13;;;8.40;;
1603;SDS011;795;49.296;11.348;2022-08-30T04:47:40;10.40;;;8.50;;
1603;SDS011;795;49.296;11.348;2022-08-30T04:50:12;10.73;;;9.20;;
1603;SDS011;795;49.296;11.348;2022-08-30T04:52:44;20.87;;;12.80;;
1603;SDS011;795;49.296;11.348;2022-08-30T04:55:12;12.40;;;10.30;;
1603;SDS011;795;49.296;11.348;2022-08-30T04:57:45;10.10;;;9.20;;
1603;SDS011;795;49.296;11.348;2022-08-30T05:00:13;11.00;;;9.20;;
1603;SDS011;795;49.296;11.348;2022-08-30T05:02:40;14.97;;;10.40;;
1603;SDS011;795;49.296;11.348;2022-08-30T05:05:08;17.53;;;13.50;;
1603;SDS011;795;49.296;11.348;2022-08-30T05:07:55;22.63;;;17.37;;
1603;SDS011;795;49.296;11.348;2022-08-30T05:10:22;16.37;;;13.10;;
1603;SDS011;795;49.296;11.348;2022-08-30T05:12:52;11.90;;;10.67;;
1603;SDS011;795;49.296;11.348;2022-08-30T05:15:20;11.00;;;9.87;;
1603;SDS011;795;49.296;11.348;2022-08-30T05:17:47;10.53;;;9.43;;
1603;SDS011;795;49.296;11.348;2022-08-30T05:20:14;10.40;;;9.20;;
1603;SDS011;795;49.296;11.348;2022-08-30T05:22:43;9.63;;;8.70;;
1603;SDS011;795;49.296;11.348;2022-08-30T05:25:23;10.33;;;8.90;;
1603;SDS011;795;49.296;11.348;2022-08-30T05:27:57;10.93;;;9.70;;
1603;SDS011;795;49.296;11.348;2022-08-30T05:30:25;9.73;;;8.67;;
1603;SDS011;795;49.296;11.348;2022-08-30T05:32:53;10.90;;;9.87;;
1603;SDS011;795;49.296;11.348;2022-08-30T05:35:20;8.60;;;7.90;;
1603;SDS011;795;49.296;11.348;2022-08-30T05:37:51;9.30;;;8.40;;
1603;SDS011;795;49.296;11.348;2022-08-30T05:40:19;10.13;;;9.00;;
1603;SDS011;795;49.296;11.348;2022-08-30T05:42:47;8.93;;;8.07;;
1603;SDS011;795;49.296;11.348;2022-08-30T05:45:14;15.67;;;8.47;;
1603;SDS011;795;49.296;11.348;2022-08-30T05:47:41;9.73;;;8.07;;
1603;SDS011;795;49.296;11.348;2022-08-30T05:50:08;9.00;;;7.40;;
1603;SDS011;795;49.296;11.348;2022-08-30T05:52:36;8.40;;;7.60;;
1603;SDS011;795;49.296;11.348;2022-08-30T05:55:08;12.10;;;7.27;;
1603;SDS011;795;49.296;11.348;2022-08-30T05:57:37;9.80;;;8.10;;
1603;SDS011;795;49.296;11.348;2022-08-30T06:00:09;9.10;;;8.20;;
1603;SDS011;795;49.296;11.348;2022-08-30T06:02:43;8.30;;;7.50;;
1603;SDS011;795;49.296;11.348;2022-08-30T06:05:10;9.33;;;7.60;;
1603;SDS011;795;49.296;11.348;2022-08-30T06:07:40;9.70;;;7.27;;
1603;SDS011;795;49.296;11.348;2022-08-30T06:10:08;8.70;;;7.10;;
1603;SDS011;795;49.296;11.348;2022-08-30T06:12:37;7.17;;;6.57;;
1603;SDS011;795;49.296;11.348;2022-08-30T06:15:04;9.40;;;7.40;;
1603;SDS011;795;49.296;11.348;2022-08-30T06:17:32;10.57;;;8.90;;
1603;SDS011;795;49.296;11.348;2022-08-30T06:19:59;8.67;;;7.70;;
1603;SDS011;795;49.296;11.348;2022-08-30T06:22:26;9.00;;;7.50;;
1603;SDS011;795;49.296;11.348;2022-08-30T06:24:53;9.57;;;7.50;;
1603;SDS011;795;49.296;11.348;2022-08-30T06:27:23;8.70;;;7.80;;
1603;SDS011;795;49.296;11.348;2022-08-30T06:29:50;10.50;;;7.73;;
1603;SDS011;795;49.296;11.348;2022-08-30T06:32:18;8.10;;;7.33;;
1603;SDS011;795;49.296;11.348;2022-08-30T06:34:45;7.70;;;6.63;;
1603;SDS011;795;49.296;11.348;2022-08-30T06:37:13;9.80;;;7.63;;
1603;SDS011;795;49.296;11.348;2022-08-30T06:39:55;8.37;;;7.20;;
1603;SDS011;795;49.296;11.348;2022-08-30T06:42:25;8.90;;;8.10;;
1603;SDS011;795;49.296;11.348;2022-08-30T06:45:02;9.37;;;8.67;;
1603;SDS011;795;49.296;11.348;2022-08-30T06:47:35;8.17;;;7.37;;
1603;SDS011;795;49.296;11.348;2022-08-30T06:50:04;13.23;;;8.23;;
1603;SDS011;795;49.296;11.348;2022-08-30T06:52:37;8.50;;;7.60;;
1603;SDS011;795;49.296;11.348;2022-08-30T06:55:13;9.50;;;8.10;;
1603;SDS011;795;49.296;11.348;2022-08-30T06:57:42;9.50;;;8.40;;
1603;SDS011;795;49.296;11.348;2022-08-30T07:00:11;8.40;;;7.70;;
1603;SDS011;795;49.296;11.348;2022-08-30T07:02:42;10.67;;;8.27;;
1603;SDS011;795;49.296;11.348;2022-08-30T07:05:09;9.97;;;8.93;;
1603;SDS011;795;49.296;11.348;2022-08-30T07:07:43;8.27;;;7.47;;
1603;SDS011;795;49.296;11.348;2022-08-30T07:10:10;8.73;;;7.93;;
1603;SDS011;795;49.296;11.348;2022-08-30T07:12:37;9.03;;;8.03;;
1603;SDS011;795;49.296;11.348;2022-08-30T07:15:04;9.10;;;7.57;;
1603;SDS011;795;49.296;11.348;2022-08-30T07:17:33;8.73;;;8.03;;
1603;SDS011;795;49.296;11.348;2022-08-30T07:20:19;9.73;;;7.87;;
1603;SDS011;795;49.296;11.348;2022-08-30T07:22:47;9.07;;;8.17;;
1603;SDS011;795;49.296;11.348;2022-08-30T07:25:14;8.80;;;7.40;;
1603;SDS011;795;49.296;11.348;2022-08-30T07:27:45;7.83;;;7.13;;
1603;SDS011;795;49.296;11.348;2022-08-30T07:30:12;9.10;;;8.20;;
1603;SDS011;795;49.296;11.348;2022-08-30T07:32:39;8.50;;;7.70;;
1603;SDS011;795;49.296;11.348;2022-08-30T07:35:06;9.60;;;7.83;;
1603;SDS011;795;49.296;11.348;2022-08-30T07:37:33;8.77;;;8.07;;
1603;SDS011;795;49.296;11.348;2022-08-30T07:40:01;9.57;;;8.63;;
1603;SDS011;795;49.296;11.348;2022-08-30T07:42:30;10.80;;;9.67;;
1603;SDS011;795;49.296;11.348;2022-08-30T07:44:57;10.33;;;9.10;;
1603;SDS011;795;49.296;11.348;2022-08-30T07:47:24;9.03;;;8.13;;
1603;SDS011;795;49.296;11.348;2022-08-30T07:49:51;9.73;;;8.57;;
1603;SDS011;795;49.296;11.348;2022-08-30T07:52:18;9.17;;;7.83;;
1603;SDS011;795;49.296;11.348;2022-08-30T07:54:45;9.77;;;8.77;;
1603;SDS011;795;49.296;11.348;2022-08-30T07:57:17;9.13;;;8.33;;
1603;SDS011;795;49.296;11.348;2022-08-30T07:59:44;13.10;;;8.70;;
1603;SDS011;795;49.296;11.348;2022-08-30T08:03:37;9.77;;;8.80;;
1603;SDS011;795;49.296;11.348;2022-08-30T08:06:07;9.17;;;8.37;;
1603;SDS011;795;49.296;11.348;2022-08-30T08:08:39;11.60;;;8.27;;
1603;SDS011;795;49.296;11.348;2022-08-30T08:13:45;9.53;;;8.30;;
1603;SDS011;795;49.296;11.348;2022-08-30T08:16:23;8.90;;;8.07;;
1603;SDS011;795;49.296;11.348;2022-08-30T08:18:54;8.87;;;7.97;;
1603;SDS011;795;49.296;11.348;2022-08-30T08:21:22;9.37;;;8.57;;
1603;SDS011;795;49.296;11.348;2022-08-30T08:23:51;8.77;;;7.97;;
1603;SDS011;795;49.296;11.348;2022-08-30T08:26:19;9.67;;;8.63;;
1603;SDS011;795;49.296;11.348;2022-08-30T08:28:47;7.53;;;6.80;;
1603;SDS011;795;49.296;11.348;2022-08-30T08:31:24;10.10;;;8.33;;
1603;SDS011;795;49.296;11.348;2022-08-30T08:33:58;7.20;;;6.60;;
1603;SDS011;795;49.296;11.348;2022-08-30T08:36:33;7.50;;;6.80;;
1603;SDS011;795;49.296;11.348;2022-08-30T08:39:02;7.73;;;6.57;;
1603;SDS011;795;49.296;11.348;2022-08-30T08:48:29;6.27;;;5.43;;
1603;SDS011;795;49.296;11.348;2022-08-30T08:51:26;7.07;;;6.13;;
1603;SDS011;795;49.296;11.348;2022-08-30T08:57:24;7.87;;;5.67;;
1603;SDS011;795;49.296;11.348;2022-08-30T08:59:59;5.70;;;4.67;;
1603;SDS011;795;49.296;11.348;2022-08-30T09:02:38;6.23;;;4.93;;
1603;SDS011;795;49.296;11.348;2022-08-30T09:05:21;7.87;;;4.73;;
1603;SDS011;795;49.296;11.348;2022-08-30T09:07:59;5.77;;;5.17;;
1603;SDS011;795;49.296;11.348;2022-08-30T09:10:35;11.13;;;4.70;;
1603;SDS011;795;49.296;11.348;2022-08-30T09:13:16;6.27;;;5.50;;
1603;SDS011;795;49.296;11.348;2022-08-30T09:15:48;7.93;;;5.47;;
1603;SDS011;795;49.296;11.348;2022-08-30T09:19:06;6.90;;;4.43;;
1603;SDS011;795;49.296;11.348;2022-08-30T09:21:19;8.10;;;5.33;;
1603;SDS011;795;49.296;11.348;2022-08-30T09:23:56;5.17;;;4.70;;
1603;SDS011;795;49.296;11.348;2022-08-30T09:26:34;5.07;;;4.57;;
1603;SDS011;795;49.296;11.348;2022-08-30T09:29:04;4.73;;;4.20;;
1603;SDS011;795;49.296;11.348;2022-08-30T09:31:48;4.10;;;3.80;;
1603;SDS011;795;49.296;11.348;2022-08-30T09:34:39;4.90;;;4.37;;
1603;SDS011;795;49.296;11.348;2022-08-30T09:37:13;4.60;;;4.20;;
1603;SDS011;795;49.296;11.348;2022-08-30T09:40:11;4.73;;;4.00;;
1603;SDS011;795;49.296;11.348;2022-08-30T09:42:58;4.40;;;4.00;;
1603;SDS011;795;49.296;11.348;2022-08-30T09:45:33;4.73;;;3.80;;
1603;SDS011;795;49.296;11.348;2022-08-30T09:53:38;4.90;;;4.50;;
1603;SDS011;795;49.296;11.348;2022-08-30T10:00:10;5.03;;;3.50;;
1603;SDS011;795;49.296;11.348;2022-08-30T10:06:40;4.37;;;3.30;;
1603;SDS011;795;49.296;11.348;2022-08-30T10:15:22;3.60;;;3.00;;
1603;SDS011;795;49.296;11.348;2022-08-30T10:21:17;3.93;;;3.30;;
1603;SDS011;795;49.296;11.348;2022-08-30T10:24:05;3.57;;;3.27;;
1603;SDS011;795;49.296;11.348;2022-08-30T10:26:51;3.97;;;3.67;;
1603;SDS011;795;49.296;11.348;2022-08-30T10:29:35;5.03;;;3.40;;
1603;SDS011;795;49.296;11.348;2022-08-30T10:32:35;5.03;;;3.50;;
1603;SDS011;795;49.296;11.348;2022-08-30T10:35:28;3.10;;;2.80;;
1603;SDS011;795;49.296;11.348;2022-08-30T10:38:13;4.00;;;3.70;;
1603;SDS011;795;49.296;11.348;2022-08-30T10:41:23;3.33;;;3.03;;
1603;SDS011;795;49.296;11.348;2022-08-30T10:47:20;5.67;;;3.63;;
1603;SDS011;795;49.296;11.348;2022-08-30T10:50:29;4.03;;;3.50;;
1603;SDS011;795;49.296;11.348;2022-08-30T10:53:18;6.20;;;3.90;;
1603;SDS011;795;49.296;11.348;2022-08-30T10:56:17;9.60;;;3.80;;
1603;SDS011;795;49.296;11.348;2022-08-30T10:58:52;3.63;;;3.33;;
1603;SDS011;795;49.296;11.348;2022-08-30T11:13:45;5.60;;;3.80;;
1603;SDS011;795;49.296;11.348;2022-08-30T11:16:16;4.00;;;3.70;;
1603;SDS011;795;49.296;11.348;2022-08-30T11:21:33;7.30;;;4.57;;
1603;SDS011;795;49.296;11.348;2022-08-30T11:24:08;5.57;;;4.70;;
1603;SDS011;795;49.296;11.348;2022-08-30T11:26:53;4.50;;;4.10;;
1603;SDS011;795;49.296;11.348;2022-08-30T11:40:03;5.43;;;4.50;;
1603;SDS011;795;49.296;11.348;2022-08-30T11:42:57;5.20;;;4.77;;
1603;SDS011;795;49.296;11.348;2022-08-30T11:46:17;6.20;;;3.60;;
1603;SDS011;795;49.296;11.348;2022-08-30T11:54:59;3.53;;;3.23;;
1603;SDS011;795;49.296;11.348;2022-08-30T11:57:47;4.63;;;3.77;;
1603;SDS011;795;49.296;11.348;2022-08-30T12:01:16;3.60;;;3.33;;
1603;SDS011;795;49.296;11.348;2022-08-30T12:15:06;3.00;;;2.70;;
1603;SDS011;795;49.296;11.348;2022-08-30T12:17:28;4.40;;;3.60;;
1603;SDS011;795;49.296;11.348;2022-08-30T12:20:46;3.00;;;2.80;;
1603;SDS011;795;49.296;11.348;2022-08-30T12:25:48;3.00;;;2.80;;
1603;SDS011;795;49.296;11.348;2022-08-30T12:28:36;3.00;;;2.80;;
1603;SDS011;795;49.296;11.348;2022-08-30T12:31:25;3.30;;;3.00;;
1603;SDS011;795;49.296;11.348;2022-08-30T12:33:54;5.60;;;3.33;;
1603;SDS011;795;49.296;11.348;2022-08-30T12:37:00;3.37;;;3.17;;
1603;SDS011;795;49.296;11.348;2022-08-30T12:39:33;3.17;;;2.87;;
1603;SDS011;795;49.296;11.348;2022-08-30T12:42:25;3.30;;;2.70;;
1603;SDS011;795;49.296;11.348;2022-08-30T12:45:02;4.20;;;3.23;;
1603;SDS011;795;49.296;11.348;2022-08-30T12:50:33;3.40;;;3.10;;
1603;SDS011;795;49.296;11.348;2022-08-30T12:53:11;3.47;;;2.73;;
1603;SDS011;795;49.296;11.348;2022-08-30T12:55:59;3.90;;;3.30;;
1603;SDS011;795;49.296;11.348;2022-08-30T12:59:02;3.03;;;2.73;;
1603;SDS011;795;49.296;11.348;2022-08-30T13:01:31;5.80;;;3.10;;
1603;SDS011;795;49.296;11.348;2022-08-30T13:06:59;5.80;;;3.47;;
1603;SDS011;795;49.296;11.348;2022-08-30T13:09:28;6.13;;;2.80;;
1603;SDS011;795;49.296;11.348;2022-08-30T13:11:59;3.60;;;3.30;;
1603;SDS011;795;49.296;11.348;2022-08-30T13:22:35;3.43;;;3.13;;
1603;SDS011;795;49.296;11.348;2022-08-30T13:25:08;3.83;;;3.43;;
1603;SDS011;795;49.296;11.348;2022-08-30T13:27:37;4.90;;;3.30;;
1603;SDS011;795;49.296;11.348;2022-08-30T13:30:09;3.97;;;3.60;;
1603;SDS011;795;49.296;11.348;2022-08-30T13:32:41;8.13;;;3.40;;
1603;SDS011;795;49.296;11.348;2022-08-30T13:35:09;3.23;;;3.03;;
1603;SDS011;795;49.296;11.348;2022-08-30T13:37:38;5.37;;;3.30;;
1603;SDS011;795;49.296;11.348;2022-08-30T13:40:16;4.40;;;3.03;;
1603;SDS011;795;49.296;11.348;2022-08-30T13:42:47;4.60;;;3.50;;
1603;SDS011;795;49.296;11.348;2022-08-30T13:45:16;3.73;;;3.43;;
1603;SDS011;795;49.296;11.348;2022-08-30T13:48:06;4.10;;;3.70;;
1603;SDS011;795;49.296;11.348;2022-08-30T13:50:35;3.80;;;3.40;;
1603;SDS011;795;49.296;11.348;2022-08-30T13:53:03;4.20;;;3.77;;
1603;SDS011;795;49.296;11.348;2022-08-30T13:55:30;3.30;;;3.00;;
1603;SDS011;795;49.296;11.348;2022-08-30T13:57:57;3.27;;;2.97;;
1603;SDS011;795;49.296;11.348;2022-08-30T14:00:25;3.37;;;3.07;;
1603;SDS011;795;49.296;11.348;2022-08-30T14:02:53;3.70;;;3.17;;
1603;SDS011;795;49.296;11.348;2022-08-30T14:05:26;4.60;;;3.33;;
1603;SDS011;795;49.296;11.348;2022-08-30T14:08:20;4.43;;;3.67;;
1603;SDS011;795;49.296;11.348;2022-08-30T14:11:16;3.60;;;3.30;;
1603;SDS011;795;49.296;11.348;2022-08-30T14:13:47;3.60;;;3.10;;
1603;SDS011;795;49.296;11.348;2022-08-30T14:16:38;3.70;;;3.40;;
1603;SDS011;795;49.296;11.348;2022-08-30T14:19:09;3.30;;;3.00;;
1603;SDS011;795;49.296;11.348;2022-08-30T14:21:40;4.20;;;3.00;;
1603;SDS011;795;49.296;11.348;2022-08-30T14:24:13;4.37;;;3.97;;
1603;SDS011;795;49.296;11.348;2022-08-30T14:26:46;3.60;;;3.30;;
1603;SDS011;795;49.296;11.348;2022-08-30T14:29:18;7.53;;;3.70;;
1603;SDS011;795;49.296;11.348;2022-08-30T14:31:51;7.57;;;4.03;;
1603;SDS011;795;49.296;11.348;2022-08-30T14:34:18;3.97;;;3.53;;
1603;SDS011;795;49.296;11.348;2022-08-30T14:36:46;4.27;;;3.87;;
1603;SDS011;795;49.296;11.348;2022-08-30T14:39:15;3.73;;;3.50;;
1603;SDS011;795;49.296;11.348;2022-08-30T14:41:51;4.43;;;3.63;;
1603;SDS011;795;49.296;11.348;2022-08-30T14:44:21;5.10;;;3.80;;
1603;SDS011;795;49.296;11.348;2022-08-30T14:46:50;5.63;;;3.67;;
1603;SDS011;795;49.296;11.348;2022-08-30T14:49:19;5.80;;;4.43;;
1603;SDS011;795;49.296;11.348;2022-08-30T14:51:48;4.97;;;4.30;;
1603;SDS011;795;49.296;11.348;2022-08-30T14:54:17;4.17;;;3.77;;
1603;SDS011;795;49.296;11.348;2022-08-30T14:56:52;4.30;;;3.60;;
1603;SDS011;795;49.296;11.348;2022-08-30T14:59:21;6.23;;;3.57;;
1603;SDS011;795;49.296;11.348;2022-08-30T15:01:49;6.30;;;3.90;;
1603;SDS011;795;49.296;11.348;2022-08-30T15:04:17;4.07;;;3.50;;
1603;SDS011;795;49.296;11.348;2022-08-30T15:06:47;5.70;;;3.33;;
1603;SDS011;795;49.296;11.348;2022-08-30T15:09:15;4.10;;;3.80;;
1603;SDS011;795;49.296;11.348;2022-08-30T15:11:50;4.17;;;3.87;;
1603;SDS011;795;49.296;11.348;2022-08-30T15:14:24;5.27;;;3.57;;
1603;SDS011;795;49.296;11.348;2022-08-30T15:16:53;3.63;;;3.33;;
1603;SDS011;795;49.296;11.348;2022-08-30T15:19:23;5.50;;;3.50;;
1603;SDS011;795;49.296;11.348;2022-08-30T15:21:51;3.33;;;2.90;;
1603;SDS011;795;49.296;11.348;2022-08-30T15:24:20;7.73;;;3.80;;
1603;SDS011;795;49.296;11.348;2022-08-30T15:26:55;4.30;;;3.40;;
1603;SDS011;795;49.296;11.348;2022-08-30T15:29:25;6.57;;;3.47;;
1603;SDS011;795;49.296;11.348;2022-08-30T15:31:57;3.90;;;3.50;;
1603;SDS011;795;49.296;11.348;2022-08-30T15:34:30;5.70;;;3.50;;
1603;SDS011;795;49.296;11.348;2022-08-30T15:36:58;4.13;;;3.73;;
1603;SDS011;795;49.296;11.348;2022-08-30T15:39:25;3.00;;;2.80;;
1603;SDS011;795;49.296;11.348;2022-08-30T15:41:54;3.63;;;3.33;;
1603;SDS011;795;49.296;11.348;2022-08-30T15:44:26;4.73;;;3.10;;
1603;SDS011;795;49.296;11.348;2022-08-30T15:46:56;4.80;;;3.00;;
1603;SDS011;795;49.296;11.348;2022-08-30T15:49:27;3.37;;;3.07;;
1603;SDS011;795;49.296;11.348;2022-08-30T15:52:01;3.73;;;3.33;;
1603;SDS011;795;49.296;11.348;2022-08-30T15:54:33;4.30;;;3.20;;
1603;SDS011;795;49.296;11.348;2022-08-30T15:57:00;6.20;;;3.40;;
1603;SDS011;795;49.296;11.348;2022-08-30T15:59:31;5.77;;;3.60;;
1603;SDS011;795;49.296;11.348;2022-08-30T16:02:01;3.43;;;3.13;;
1603;SDS011;795;49.296;11.348;2022-08-30T16:04:31;4.20;;;3.07;;
1603;SDS011;795;49.296;11.348;2022-08-30T16:07:07;3.17;;;2.97;;
1603;SDS011;795;49.296;11.348;2022-08-30T16:09:38;5.50;;;3.17;;
1603;SDS011;795;49.296;11.348;2022-08-30T16:12:08;3.60;;;3.30;;
1603;SDS011;795;49.296;11.348;2022-08-30T16:14:35;3.70;;;3.00;;
1603;SDS011;795;49.296;11.348;2022-08-30T16:17:02;3.60;;;3.30;;
1603;SDS011;795;49.296;11.348;2022-08-30T16:19:30;3.43;;;3.17;;
1603;SDS011;795;49.296;11.348;2022-08-30T16:21:57;3.90;;;3.50;;
1603;SDS011;795;49.296;11.348;2022-08-30T16:24:24;3.73;;;3.40;;
1603;SDS011;795;49.296;11.348;2022-08-30T16:26:52;3.93;;;3.23;;
1603;SDS011;795;49.296;11.348;2022-08-30T16:29:20;4.37;;;3.60;;
1603;SDS011;795;49.296;11.348;2022-08-30T16:31:47;4.30;;;3.90;;
1603;SDS011;795;49.296;11.348;2022-08-30T16:34:15;4.10;;;3.80;;
1603;SDS011;795;49.296;11.348;2022-08-30T16:36:45;3.97;;;3.63;;
1603;SDS011;795;49.296;11.348;2022-08-30T16:39:13;4.50;;;3.50;;
1603;SDS011;795;49.296;11.348;2022-08-30T16:41:42;4.10;;;3.30;;
1603;SDS011;795;49.296;11.348;2022-08-30T16:44:10;5.67;;;3.57;;
1603;SDS011;795;49.296;11.348;2022-08-30T16:46:43;3.33;;;3.07;;
1603;SDS011;795;49.296;11.348;2022-08-30T16:49:18;4.40;;;4.00;;
1603;SDS011;795;49.296;11.348;2022-08-30T16:51:47;3.90;;;3.27;;
1603;SDS011;795;49.296;11.348;2022-08-30T16:54:15;8.27;;;4.47;;
1603;SDS011;795;49.296;11.348;2022-08-30T16:56:43;10.03;;;3.80;;
1603;SDS011;795;49.296;11.348;2022-08-30T16:59:11;7.70;;;4.90;;
1603;SDS011;795;49.296;11.348;2022-08-30T17:01:38;5.53;;;5.03;;
1603;SDS011;795;49.296;11.348;2022-08-30T17:04:10;5.80;;;4.77;;
1603;SDS011;795;49.296;11.348;2022-08-30T17:06:44;5.20;;;3.90;;
1603;SDS011;795;49.296;11.348;2022-08-30T17:09:15;4.80;;;4.13;;
1603;SDS011;795;49.296;11.348;2022-08-30T17:11:44;4.30;;;3.90;;
1603;SDS011;795;49.296;11.348;2022-08-30T17:14:12;5.37;;;4.10;;
1603;SDS011;795;49.296;11.348;2022-08-30T17:16:39;7.20;;;3.40;;
1603;SDS011;795;49.296;11.348;2022-08-30T17:19:07;3.10;;;2.80;;
1603;SDS011;795;49.296;11.348;2022-08-30T17:21:34;5.87;;;3.70;;
1603;SDS011;795;49.296;11.348;2022-08-30T17:24:04;3.30;;;3.00;;
1603;SDS011;795;49.296;11.348;2022-08-30T17:26:32;3.10;;;2.70;;
1603;SDS011;795;49.296;11.348;2022-08-30T17:29:03;5.03;;;3.63;;